Time;durP1;ratioP1;P1;durP2;ratioP2;P2;SDS_P1;SDS_P2;PMS_P1;PMS_P2;Temp;Humidity;BMP_temperature;BMP_pressure;BME280_temperature;BME280_humidity;BME280_pressure;Samples;Min_cycle;Max_cycle;Signal;HPM_P1;HPM_P2
2024/01/28 00:01:42;;;;;;;26.83;12.70;;;;;;;0.93;100.00;99751.56;5032888;28;20209;-71
2024/01/28 00:04:09;;;;;;;26.43;12.90;;;;;;;0.88;100.00;99749.31;5033320;28;20228;-71
2024/01/28 00:06:38;;;;;;;26.10;12.03;;;;;;;0.87;100.00;99744.19;5033324;28;20205;-71
2024/01/28 00:09:06;;;;;;;17.47;9.93;;;;;;;0.84;100.00;99749.66;5032843;28;20218;-71
2024/01/28 00:11:36;;;;;;;15.53;8.73;;;;;;;0.74;100.00;99743.44;5032997;28;20305;-71
2024/01/28 00:14:07;;;;;;;12.30;8.53;;;;;;;0.71;100.00;99743.72;5033259;28;20226;-71
2024/01/28 00:16:35;;;;;;;18.13;8.97;;;;;;;0.67;100.00;99742.25;5033102;28;20213;-71
2024/01/28 00:19:05;;;;;;;14.60;7.53;;;;;;;0.57;100.00;99741.25;5033050;28;20205;-71
2024/01/28 00:21:32;;;;;;;18.43;8.80;;;;;;;0.59;100.00;99740.22;5033007;28;20560;-71
2024/01/28 00:24:04;;;;;;;18.20;8.00;;;;;;;0.59;100.00;99732.38;5033281;28;20233;-71
2024/01/28 00:26:37;;;;;;;13.77;8.77;;;;;;;0.49;100.00;99743.66;5032919;28;20244;-71
2024/01/28 00:29:03;;;;;;;14.67;8.27;;;;;;;0.56;100.00;99737.00;5033091;28;20241;-71
2024/01/28 00:31:31;;;;;;;11.10;7.60;;;;;;;0.62;100.00;99733.94;5033721;28;20232;-71
2024/01/28 00:33:59;;;;;;;14.90;8.17;;;;;;;0.67;100.00;99731.78;5036679;28;20225;-71
2024/01/28 00:36:29;;;;;;;13.10;7.90;;;;;;;0.59;100.00;99736.78;5036718;28;20217;-71
2024/01/28 00:38:57;;;;;;;15.70;7.87;;;;;;;0.52;100.00;99727.69;5036988;28;20206;-71
2024/01/28 00:41:26;;;;;;;11.60;7.13;;;;;;;0.53;100.00;99732.81;5036811;28;20758;-71
2024/01/28 00:43:53;;;;;;;14.40;7.67;;;;;;;0.52;100.00;99736.41;5036948;28;20256;-71
2024/01/28 00:46:21;;;;;;;10.67;7.73;;;;;;;0.54;100.00;99720.59;5036620;28;20574;-71
2024/01/28 00:48:56;;;;;;;10.97;7.67;;;;;;;0.51;100.00;99720.81;5036285;28;20226;-71
2024/01/28 00:51:25;;;;;;;12.00;7.07;;;;;;;0.49;100.00;99714.88;5036884;28;20672;-71
2024/01/28 00:53:55;;;;;;;12.20;7.77;;;;;;;0.47;100.00;99713.19;5036443;28;20222;-71
2024/01/28 00:56:24;;;;;;;9.90;7.70;;;;;;;0.50;100.00;99713.91;5036493;28;20206;-71
2024/01/28 00:58:56;;;;;;;10.23;7.17;;;;;;;0.49;100.00;99713.06;5036437;28;20743;-71
2024/01/28 01:01:25;;;;;;;13.23;7.73;;;;;;;0.40;100.00;99703.28;5036504;28;20277;-71
2024/01/28 01:03:55;;;;;;;11.50;7.37;;;;;;;0.42;100.00;99700.56;5036314;28;20226;-71
2024/01/28 01:06:22;;;;;;;13.50;7.83;;;;;;;0.36;100.00;99701.03;5036250;28;20206;-71
2024/01/28 01:08:51;;;;;;;9.60;7.13;;;;;;;0.27;100.00;99693.88;5036314;28;20700;-71
2024/01/28 01:11:19;;;;;;;12.83;7.87;;;;;;;0.32;100.00;99689.97;5036491;28;20670;-71
2024/01/28 01:13:46;;;;;;;13.00;7.80;;;;;;;0.22;100.00;99685.53;5036074;28;20225;-71
2024/01/28 01:16:13;;;;;;;13.27;8.30;;;;;;;0.15;100.00;99687.78;5036166;28;20205;-71
2024/01/28 01:18:39;;;;;;;11.40;8.07;;;;;;;0.19;100.00;99687.44;5036403;28;20297;-71
2024/01/28 01:21:06;;;;;;;11.73;7.70;;;;;;;0.22;100.00;99684.59;5036304;28;20214;-71
2024/01/28 01:23:32;;;;;;;11.53;7.40;;;;;;;0.22;100.00;99679.38;5036254;28;20230;-71
2024/01/28 01:25:58;;;;;;;17.90;8.93;;;;;;;0.22;100.00;99677.69;5035999;28;20344;-71
2024/01/28 01:28:31;;;;;;;12.53;8.07;;;;;;;0.26;100.00;99679.97;5036131;28;20226;-71
2024/01/28 01:30:57;;;;;;;10.43;7.60;;;;;;;0.27;100.00;99684.22;5036163;28;20596;-71
2024/01/28 01:33:24;;;;;;;14.47;7.80;;;;;;;0.31;100.00;99683.06;5035784;28;20725;-71
2024/01/28 01:35:50;;;;;;;11.37;7.63;;;;;;;0.28;100.00;99677.22;5035782;28;20661;-71
2024/01/28 01:38:16;;;;;;;14.57;7.40;;;;;;;0.32;100.00;99677.72;5035718;28;20681;-71
2024/01/28 01:40:43;;;;;;;11.40;6.87;;;;;;;0.35;100.00;99673.22;5035620;28;20683;-71
2024/01/28 01:43:10;;;;;;;13.87;7.63;;;;;;;0.32;100.00;99675.09;5035851;28;20225;-71
2024/01/28 01:45:37;;;;;;;11.37;7.27;;;;;;;0.36;100.00;99669.66;5035957;28;20579;-71
2024/01/28 01:48:13;;;;;;;13.63;6.60;;;;;;;0.29;100.00;99666.66;5035848;28;20210;-71
2024/01/28 01:50:41;;;;;;;10.00;7.37;;;;;;;0.27;100.00;99675.56;5035772;28;20213;-71
2024/01/28 01:53:10;;;;;;;12.13;7.33;;;;;;;0.31;100.00;99661.31;5035748;28;20222;-71
2024/01/28 01:55:39;;;;;;;10.23;7.47;;;;;;;0.23;100.00;99667.94;5035770;28;20210;-71
2024/01/28 01:58:06;;;;;;;10.10;7.20;;;;;;;0.18;100.00;99666.63;5035745;28;20201;-71
2024/01/28 02:00:34;;;;;;;10.40;7.27;;;;;;;0.22;100.00;99660.22;5035767;28;20206;-71
2024/01/28 02:03:01;;;;;;;12.20;7.10;;;;;;;0.21;100.00;99668.19;5035508;28;20316;-71
2024/01/28 02:05:27;;;;;;;11.07;7.10;;;;;;;0.19;100.00;99656.03;5035608;28;20233;-71
2024/01/28 02:07:54;;;;;;;12.90;7.37;;;;;;;0.17;100.00;99653.69;5035566;28;20214;-71
2024/01/28 02:10:21;;;;;;;10.43;6.67;;;;;;;0.17;100.00;99665.81;5035085;28;20198;-71
2024/01/28 02:12:49;;;;;;;10.63;7.13;;;;;;;0.09;100.00;99669.91;5035247;28;20228;-71
2024/01/28 02:15:17;;;;;;;10.00;6.17;;;;;;;0.14;100.00;99671.25;5035105;28;20567;-71
2024/01/28 02:17:43;;;;;;;12.20;6.63;;;;;;;0.24;100.00;99663.56;5035386;28;20210;-71
2024/01/28 02:20:11;;;;;;;10.83;6.40;;;;;;;0.30;100.00;99664.88;5035013;28;20224;-71
2024/01/28 02:22:37;;;;;;;11.93;6.87;;;;;;;0.21;100.00;99663.78;5035282;28;20232;-71
2024/01/28 02:25:04;;;;;;;12.27;7.07;;;;;;;0.12;100.00;99661.03;5034775;28;20224;-71
2024/01/28 02:27:30;;;;;;;9.50;6.53;;;;;;;0.17;100.00;99665.81;5034898;28;20203;-71
2024/01/28 02:29:57;;;;;;;11.93;7.40;;;;;;;0.16;100.00;99650.22;5035036;28;20240;-71
2024/01/28 02:32:23;;;;;;;12.47;7.00;;;;;;;0.19;100.00;99642.97;5034928;28;20229;-71
2024/01/28 02:34:50;;;;;;;10.43;6.47;;;;;;;0.27;100.00;99639.75;5035721;28;20202;-71
2024/01/28 02:37:16;;;;;;;11.93;6.43;;;;;;;0.31;100.00;99641.22;5034844;28;20217;-71
2024/01/28 02:39:43;;;;;;;11.93;6.77;;;;;;;0.45;100.00;99642.78;5034603;28;20567;-71
2024/01/28 02:42:09;;;;;;;11.33;6.77;;;;;;;0.43;100.00;99637.66;5034449;28;20713;-71
2024/01/28 02:44:35;;;;;;;11.07;6.70;;;;;;;0.44;100.00;99641.13;5034727;28;20212;-71
2024/01/28 02:47:02;;;;;;;15.83;6.63;;;;;;;0.40;100.00;99637.88;5034634;28;20208;-71
2024/01/28 02:49:28;;;;;;;11.90;6.97;;;;;;;0.40;100.00;99634.47;5034677;28;20288;-71
2024/01/28 02:51:55;;;;;;;8.93;6.63;;;;;;;0.38;100.00;99638.97;5035111;28;20210;-71
2024/01/28 02:54:22;;;;;;;12.87;6.33;;;;;;;0.29;100.00;99627.44;5034054;28;20202;-71
2024/01/28 02:56:49;;;;;;;11.90;7.60;;;;;;;0.26;100.00;99622.41;5034230;28;20583;-71
2024/01/28 02:59:15;;;;;;;11.10;6.47;;;;;;;0.23;100.00;99620.88;5034549;28;20197;-71
2024/01/28 03:01:46;;;;;;;11.33;6.80;;;;;;;0.21;100.00;99623.75;5034485;28;20202;-71
2024/01/28 03:04:13;;;;;;;11.83;6.87;;;;;;;0.21;100.00;99621.13;5034304;28;20222;-71
2024/01/28 03:06:39;;;;;;;11.50;6.97;;;;;;;0.19;100.00;99616.81;5034201;28;20206;-71
2024/01/28 03:09:07;;;;;;;10.40;6.70;;;;;;;0.20;100.00;99622.88;5034238;28;20226;-71
2024/01/28 03:11:34;;;;;;;10.03;6.57;;;;;;;0.19;100.00;99622.03;5034294;28;20381;-71
2024/01/28 03:14:00;;;;;;;11.50;7.00;;;;;;;0.14;100.00;99618.13;5033849;28;20232;-71
2024/01/28 03:16:26;;;;;;;10.03;7.13;;;;;;;0.18;100.00;99619.53;5034194;28;20206;-71
2024/01/28 03:18:53;;;;;;;9.17;6.97;;;;;;;0.08;100.00;99622.03;5033861;28;20208;-71
2024/01/28 03:21:19;;;;;;;12.80;7.30;;;;;;;0.09;100.00;99621.09;5034111;28;20232;-71
2024/01/28 03:23:46;;;;;;;10.03;6.67;;;;;;;0.08;100.00;99620.38;5033817;28;20249;-71
2024/01/28 03:26:13;;;;;;;11.37;7.07;;;;;;;0.00;100.00;99624.38;5033607;28;20728;-71
2024/01/28 03:28:39;;;;;;;8.50;6.13;;;;;;;-0.09;100.00;99619.84;5033908;28;20229;-71
2024/01/28 03:31:06;;;;;;;11.27;6.70;;;;;;;-0.12;100.00;99627.91;5033600;28;20210;-71
2024/01/28 03:33:32;;;;;;;11.77;6.57;;;;;;;-0.12;100.00;99625.28;5033839;28;20252;-71
2024/01/28 03:35:59;;;;;;;11.37;6.77;;;;;;;-0.17;100.00;99624.81;5033815;28;20569;-71
2024/01/28 03:38:25;;;;;;;11.13;7.10;;;;;;;-0.15;100.00;99630.78;5033844;28;20300;-71
2024/01/28 03:40:51;;;;;;;9.77;7.50;;;;;;;-0.14;100.00;99618.50;5033805;28;20206;-71
2024/01/28 03:43:18;;;;;;;9.80;7.13;;;;;;;-0.14;100.00;99621.97;5033775;28;20236;-71
2024/01/28 03:45:44;;;;;;;9.63;7.17;;;;;;;-0.13;100.00;99617.59;5034327;28;20209;-71
2024/01/28 03:48:10;;;;;;;10.47;6.90;;;;;;;-0.14;100.00;99606.28;5033676;28;20212;-71
2024/01/28 03:50:37;;;;;;;10.27;7.00;;;;;;;-0.07;100.00;99612.75;5033272;28;20225;-71
2024/01/28 03:53:04;;;;;;;12.73;7.20;;;;;;;-0.09;100.00;99613.81;5033245;28;20708;-71
2024/01/28 03:55:31;;;;;;;8.93;7.00;;;;;;;-0.05;100.00;99616.06;5033505;28;20232;-71
2024/01/28 03:57:57;;;;;;;10.57;7.47;;;;;;;-0.13;100.00;99614.97;5033453;28;20579;-71
2024/01/28 04:00:28;;;;;;;11.63;7.10;;;;;;;-0.20;100.00;99611.97;5033412;28;20601;-71
2024/01/28 04:02:55;;;;;;;10.27;6.97;;;;;;;-0.23;100.00;99613.97;5033339;28;20234;-71
2024/01/28 04:05:21;;;;;;;11.03;7.37;;;;;;;-0.22;100.00;99611.25;5033190;28;20209;-71
2024/01/28 04:07:48;;;;;;;13.00;7.20;;;;;;;-0.22;100.00;99618.28;5032634;28;20212;-71
2024/01/28 04:10:17;;;;;;;10.33;7.47;;;;;;;-0.19;100.00;99615.41;5033237;28;20238;-71
2024/01/28 04:12:44;;;;;;;13.50;7.10;;;;;;;-0.20;100.00;99614.59;5033371;28;20222;-71
2024/01/28 04:15:10;;;;;;;11.90;7.20;;;;;;;-0.15;100.00;99604.63;5033292;28;20216;-71
2024/01/28 04:17:37;;;;;;;9.67;7.13;;;;;;;-0.21;100.00;99602.44;5033339;28;20212;-71
2024/01/28 04:20:03;;;;;;;9.87;6.83;;;;;;;-0.21;100.00;99609.47;5033212;28;20209;-71
2024/01/28 04:22:31;;;;;;;9.70;7.10;;;;;;;-0.21;100.00;99605.06;5033072;28;20630;-71
2024/01/28 04:24:57;;;;;;;13.67;7.73;;;;;;;-0.16;100.00;99604.75;5033130;28;20562;-71
2024/01/28 04:27:24;;;;;;;9.33;6.83;;;;;;;-0.08;100.00;99605.81;5033073;28;20196;-71
2024/01/28 04:29:50;;;;;;;14.23;7.50;;;;;;;-0.09;100.00;99601.53;5033184;28;20229;-71
2024/01/28 04:32:16;;;;;;;12.43;7.67;;;;;;;-0.05;100.00;99607.38;5033123;28;20232;-71
2024/01/28 04:34:43;;;;;;;10.47;6.63;;;;;;;-0.12;100.00;99612.22;5033201;28;20201;-71
2024/01/28 04:37:09;;;;;;;12.13;7.17;;;;;;;-0.18;100.00;99612.69;5032990;28;20207;-71
2024/01/28 04:39:36;;;;;;;11.33;7.33;;;;;;;-0.20;100.00;99609.38;5032803;28;20657;-71
2024/01/28 04:42:03;;;;;;;10.93;7.13;;;;;;;-0.28;100.00;99609.09;5032952;28;20202;-71
2024/01/28 04:44:29;;;;;;;9.60;7.13;;;;;;;-0.32;100.00;99607.66;5032692;28;20672;-71
2024/01/28 04:46:57;;;;;;;12.07;6.97;;;;;;;-0.28;100.00;99606.50;5033431;28;20571;-71
2024/01/28 04:49:26;;;;;;;9.93;7.40;;;;;;;-0.33;100.00;99606.00;5032905;28;20653;-71
2024/01/28 04:51:53;;;;;;;12.07;6.97;;;;;;;-0.31;100.00;99609.31;5032864;28;20206;-71
2024/01/28 04:54:19;;;;;;;11.20;6.73;;;;;;;-0.27;100.00;99615.97;5032902;28;20206;-71
2024/01/28 04:56:46;;;;;;;14.50;7.33;;;;;;;-0.38;100.00;99618.56;5033053;28;20301;-71
2024/01/28 04:59:12;;;;;;;11.87;6.93;;;;;;;-0.41;100.00;99610.94;5032940;28;20202;-71
2024/01/28 05:01:39;;;;;;;12.03;6.40;;;;;;;-0.32;100.00;99615.50;5032581;28;20669;-71
2024/01/28 05:04:05;;;;;;;9.57;6.73;;;;;;;-0.32;100.00;99609.41;5032859;28;20230;-71
2024/01/28 05:06:35;;;;;;;12.93;7.97;;;;;;;-0.27;100.00;99613.38;5032749;28;20228;-71
2024/01/28 05:09:06;;;;;;;11.50;7.57;;;;;;;-0.26;100.00;99612.41;5032737;28;20600;-71
2024/01/28 05:11:32;;;;;;;9.73;7.50;;;;;;;-0.27;100.00;99618.59;5032784;28;20202;-71
2024/01/28 05:13:59;;;;;;;10.93;7.47;;;;;;;-0.29;100.00;99620.50;5032587;28;20222;-71
2024/01/28 05:16:26;;;;;;;10.97;7.40;;;;;;;-0.28;100.00;99626.53;5032566;28;20210;-71
2024/01/28 05:18:53;;;;;;;12.33;6.73;;;;;;;-0.31;100.00;99622.38;5035330;28;20202;-71
2024/01/28 05:21:20;;;;;;;10.60;7.37;;;;;;;-0.30;100.00;99624.03;5036089;28;20212;-71
2024/01/28 05:23:47;;;;;;;11.67;7.63;;;;;;;-0.31;100.00;99617.16;5036149;28;20229;-71
2024/01/28 05:26:14;;;;;;;13.13;8.23;;;;;;;-0.30;100.00;99613.59;5035992;28;20224;-71
2024/01/28 05:28:41;;;;;;;9.23;7.13;;;;;;;-0.42;100.00;99601.44;5036235;28;20209;-71
2024/01/28 05:31:09;;;;;;;9.43;7.30;;;;;;;-0.34;100.00;99609.56;5036102;28;20225;-71
2024/01/28 05:33:37;;;;;;;8.60;7.23;;;;;;;-0.54;100.00;99609.34;5036021;28;20230;-71
2024/01/28 05:36:13;;;;;;;10.90;7.27;;;;;;;-0.58;100.00;99608.72;5035963;28;20309;-71
2024/01/28 05:38:40;;;;;;;10.57;7.00;;;;;;;-0.65;100.00;99612.75;5035890;28;20185;-71
2024/01/28 05:41:10;;;;;;;14.10;8.00;;;;;;;-0.69;100.00;99611.28;5035649;28;20208;-71
2024/01/28 05:43:36;;;;;;;9.83;6.90;;;;;;;-0.64;100.00;99608.34;5035537;28;20230;-71
2024/01/28 05:46:04;;;;;;;10.37;7.37;;;;;;;-0.59;100.00;99609.69;5035748;28;20213;-71
2024/01/28 05:48:31;;;;;;;13.67;7.73;;;;;;;-0.64;100.00;99613.56;5035700;28;20213;-71
2024/01/28 05:50:57;;;;;;;8.73;7.27;;;;;;;-0.58;100.00;99613.94;5035489;28;20228;-71
2024/01/28 05:53:24;;;;;;;9.33;7.17;;;;;;;-0.54;100.00;99607.56;5035302;28;20720;-71
2024/01/28 05:55:52;;;;;;;9.83;7.50;;;;;;;-0.56;100.00;99612.06;5035743;28;20205;-71
2024/01/28 05:58:21;;;;;;;8.63;7.17;;;;;;;-0.47;100.00;99610.56;5035477;28;20232;-71
2024/01/28 06:00:47;;;;;;;9.67;7.47;;;;;;;-0.55;100.00;99608.50;5035723;28;20439;-71
2024/01/28 06:03:14;;;;;;;12.67;7.90;;;;;;;-0.57;100.00;99613.03;5035529;28;20225;-71
2024/01/28 06:05:41;;;;;;;11.67;7.87;;;;;;;-0.50;100.00;99616.84;5035614;28;20202;-71
2024/01/28 06:08:08;;;;;;;12.20;7.97;;;;;;;-0.49;100.00;99617.69;5034909;28;20253;-71
2024/01/28 06:10:35;;;;;;;13.70;8.07;;;;;;;-0.60;100.00;99613.25;5035245;28;20236;-71
2024/01/28 06:13:02;;;;;;;14.07;7.50;;;;;;;-0.56;100.00;99616.47;5035315;28;20283;-71
2024/01/28 06:15:28;;;;;;;10.53;7.43;;;;;;;-0.61;100.00;99613.34;5035025;28;20683;-71
2024/01/28 06:17:55;;;;;;;9.13;7.33;;;;;;;-0.60;100.00;99609.78;5034932;28;20217;-71
2024/01/28 06:20:21;;;;;;;11.90;7.50;;;;;;;-0.50;100.00;99608.16;5035228;28;20224;-71
2024/01/28 06:22:47;;;;;;;11.60;8.53;;;;;;;-0.52;100.00;99603.06;5035359;28;20226;-71
2024/01/28 06:25:14;;;;;;;14.40;7.90;;;;;;;-0.49;100.00;99608.06;5035284;28;20213;-71
2024/01/28 06:27:40;;;;;;;8.90;7.57;;;;;;;-0.48;100.00;99609.75;5034728;28;20206;-71
2024/01/28 06:30:07;;;;;;;14.13;8.40;;;;;;;-0.43;100.00;99606.78;5034093;28;20595;-71
2024/01/28 06:32:33;;;;;;;13.07;7.97;;;;;;;-0.49;100.00;99613.28;5034892;28;20222;-71
2024/01/28 06:35:00;;;;;;;11.40;7.60;;;;;;;-0.52;100.00;99615.28;5034850;28;20206;-71
2024/01/28 06:37:26;;;;;;;11.40;8.17;;;;;;;-0.49;100.00;99617.69;5034589;28;20210;-71
2024/01/28 06:39:52;;;;;;;12.90;7.73;;;;;;;-0.46;100.00;99614.84;5034539;28;20210;-71
2024/01/28 06:42:19;;;;;;;12.77;7.50;;;;;;;-0.45;100.00;99616.53;5034473;28;20226;-71
2024/01/28 06:44:46;;;;;;;12.07;8.47;;;;;;;-0.47;100.00;99613.16;5034339;28;20220;-71
2024/01/28 06:47:13;;;;;;;11.53;8.00;;;;;;;-0.45;100.00;99609.50;5034601;28;20202;-71
2024/01/28 06:49:41;;;;;;;13.73;7.87;;;;;;;-0.43;100.00;99610.25;5034468;28;20221;-71
2024/01/28 06:52:07;;;;;;;8.67;7.53;;;;;;;-0.46;100.00;99600.00;5034513;28;20237;-71
2024/01/28 06:54:33;;;;;;;12.27;7.77;;;;;;;-0.46;100.00;99612.22;5034648;28;20206;-71
2024/01/28 06:57:00;;;;;;;12.60;8.33;;;;;;;-0.47;100.00;99606.19;5034573;28;20202;-71
2024/01/28 06:59:26;;;;;;;11.33;8.07;;;;;;;-0.46;100.00;99607.84;5034517;28;20212;-71
2024/01/28 07:01:52;;;;;;;12.23;8.03;;;;;;;-0.47;100.00;99615.78;5034375;28;20202;-71
2024/01/28 07:04:19;;;;;;;11.07;7.90;;;;;;;-0.48;100.00;99624.56;5034359;28;20202;-71
2024/01/28 07:06:45;;;;;;;14.40;8.47;;;;;;;-0.49;100.00;99622.91;5034344;28;20609;-71
2024/01/28 07:09:12;;;;;;;10.97;7.93;;;;;;;-0.51;100.00;99633.47;5034149;28;20571;-71
2024/01/28 07:11:38;;;;;;;10.63;8.53;;;;;;;-0.46;100.00;99628.75;5034005;28;20235;-71
2024/01/28 07:14:04;;;;;;;11.57;8.40;;;;;;;-0.40;100.00;99630.06;5033884;28;20226;-71
2024/01/28 07:16:32;;;;;;;11.47;8.03;;;;;;;-0.39;100.00;99627.38;5033627;28;20202;-71
2024/01/28 07:19:00;;;;;;;11.50;8.17;;;;;;;-0.36;100.00;99616.66;5033703;28;20696;-71
2024/01/28 07:21:30;;;;;;;13.50;8.47;;;;;;;-0.34;100.00;99627.84;5033642;28;20242;-71
2024/01/28 07:23:58;;;;;;;12.17;8.50;;;;;;;-0.23;100.00;99627.88;5033651;28;20236;-71
2024/01/28 07:26:29;;;;;;;10.57;8.40;;;;;;;-0.22;100.00;99624.31;5033665;28;20222;-71
2024/01/28 07:29:00;;;;;;;11.97;8.63;;;;;;;-0.20;100.00;99626.81;5033755;28;20206;-71
2024/01/28 07:31:29;;;;;;;11.10;8.80;;;;;;;-0.20;100.00;99630.28;5033701;28;20213;-71
2024/01/28 07:34:01;;;;;;;10.20;7.77;;;;;;;-0.21;100.00;99628.59;5033558;28;20696;-71
2024/01/28 07:36:32;;;;;;;10.63;8.47;;;;;;;-0.18;100.00;99623.16;5033423;28;20645;-70
2024/01/28 07:39:00;;;;;;;13.70;8.60;;;;;;;-0.10;100.00;99628.66;5033300;28;20558;-71
2024/01/28 07:41:29;;;;;;;15.33;10.23;;;;;;;-0.09;100.00;99630.31;5032924;28;20297;-71
2024/01/28 07:43:55;;;;;;;11.83;9.17;;;;;;;-0.07;100.00;99617.97;5032894;28;20232;-71
2024/01/28 07:46:22;;;;;;;11.47;9.20;;;;;;;-0.08;100.00;99620.69;5033146;28;20553;-71
2024/01/28 07:48:48;;;;;;;12.73;8.53;;;;;;;-0.07;100.00;99620.59;5033575;28;20272;-71
2024/01/28 07:51:15;;;;;;;12.20;8.77;;;;;;;-0.01;100.00;99619.25;5033666;28;20252;-71
2024/01/28 07:53:41;;;;;;;12.03;8.70;;;;;;;0.06;100.00;99616.06;5033539;28;20226;-71
2024/01/28 07:56:07;;;;;;;11.80;8.93;;;;;;;0.08;100.00;99616.81;5033354;28;20206;-71
2024/01/28 07:58:34;;;;;;;12.23;9.20;;;;;;;0.13;100.00;99611.22;5033398;28;20201;-71
2024/01/28 08:01:01;;;;;;;12.73;9.77;;;;;;;0.15;100.00;99618.00;5033269;28;20208;-71
2024/01/28 08:03:27;;;;;;;13.77;9.47;;;;;;;0.20;100.00;99615.03;5033224;28;20663;-71
2024/01/28 08:05:53;;;;;;;12.67;9.23;;;;;;;0.30;100.00;99615.19;5032695;28;20579;-71
2024/01/28 08:08:20;;;;;;;13.40;9.37;;;;;;;0.38;100.00;99610.19;5032878;28;20546;-71
2024/01/28 08:10:46;;;;;;;12.17;9.30;;;;;;;0.42;100.00;99606.38;5033182;28;20225;-71
2024/01/28 08:13:12;;;;;;;12.40;9.33;;;;;;;0.49;100.00;99607.59;5033256;28;20228;-71
2024/01/28 08:15:39;;;;;;;13.97;9.87;;;;;;;0.50;100.00;99597.00;5033352;28;20202;-71
2024/01/28 08:18:05;;;;;;;12.47;9.83;;;;;;;0.53;100.00;99595.94;5033177;28;20210;-71
2024/01/28 08:20:31;;;;;;;11.63;9.43;;;;;;;0.63;100.00;99597.69;5033044;28;20213;-71
2024/01/28 08:22:58;;;;;;;13.70;10.30;;;;;;;0.67;100.00;99604.38;5033135;28;20248;-71
2024/01/28 08:25:24;;;;;;;16.77;10.20;;;;;;;0.69;100.00;99605.09;5032835;28;20213;-71
2024/01/28 08:27:50;;;;;;;12.43;9.43;;;;;;;0.74;100.00;99609.97;5033079;28;20553;-71
2024/01/28 08:30:22;;;;;;;15.03;9.77;;;;;;;0.83;100.00;99606.63;5032735;28;20600;-71
2024/01/28 08:32:49;;;;;;;13.93;9.87;;;;;;;0.88;100.00;99607.09;5033145;28;20236;-72
2024/01/28 08:35:15;;;;;;;15.07;9.10;;;;;;;0.88;100.00;99613.16;5033107;28;20232;-72
2024/01/28 08:37:42;;;;;;;13.73;8.83;;;;;;;0.92;100.00;99604.13;5032991;28;20202;-72
2024/01/28 08:40:08;;;;;;;12.73;8.93;;;;;;;0.94;100.00;99606.63;5032834;28;20212;-72
2024/01/28 08:42:35;;;;;;;15.60;9.27;;;;;;;0.95;100.00;99608.28;5032657;28;20221;-72
2024/01/28 08:45:02;;;;;;;13.33;8.80;;;;;;;0.96;100.00;99602.94;5032700;28;20212;-72
2024/01/28 08:47:29;;;;;;;13.00;9.27;;;;;;;1.05;100.00;99606.59;5032442;28;20209;-72
2024/01/28 08:50:07;;;;;;;12.97;8.57;;;;;;;1.15;100.00;99602.28;5032491;28;20292;-73
2024/01/28 08:52:37;;;;;;;13.33;8.70;;;;;;;1.21;100.00;99604.44;5033368;28;20244;-73
2024/01/28 08:55:06;;;;;;;12.27;9.07;;;;;;;1.25;100.00;99595.34;5036592;28;20206;-73
2024/01/28 08:57:37;;;;;;;13.07;8.60;;;;;;;1.29;100.00;99592.38;5036209;28;20301;-72
2024/01/28 09:00:11;;;;;;;11.80;8.50;;;;;;;1.36;100.00;99593.56;5036545;28;20213;-73
2024/01/28 09:02:44;;;;;;;10.80;8.03;;;;;;;1.45;100.00;99605.06;5035988;28;20230;-73
2024/01/28 09:05:14;;;;;;;9.97;7.80;;;;;;;1.51;100.00;99599.31;5036291;28;20209;-73
2024/01/28 09:07:48;;;;;;;10.10;8.30;;;;;;;1.55;100.00;99605.97;5035651;28;20210;-73
2024/01/28 09:10:16;;;;;;;12.13;7.67;;;;;;;1.69;100.00;99608.31;5036018;28;20214;-73
2024/01/28 09:12:45;;;;;;;10.00;7.90;;;;;;;1.67;100.00;99611.03;5036113;28;20268;-73
2024/01/28 09:15:16;;;;;;;10.73;8.20;;;;;;;1.74;100.00;99614.00;5036096;28;20317;-73
2024/01/28 09:17:51;;;;;;;10.13;8.03;;;;;;;1.83;100.00;99613.25;5035978;28;20515;-73
2024/01/28 09:20:20;;;;;;;10.67;7.77;;;;;;;1.93;100.00;99608.91;5035859;28;20610;-73
2024/01/28 09:22:50;;;;;;;10.07;7.67;;;;;;;2.04;100.00;99614.09;5035552;28;20730;-73
2024/01/28 09:25:23;;;;;;;9.20;7.93;;;;;;;2.05;100.00;99618.38;5035395;28;20210;-73
2024/01/28 09:27:58;;;;;;;11.00;7.80;;;;;;;2.20;100.00;99609.22;5035714;28;20190;-73
2024/01/28 09:30:27;;;;;;;10.93;7.23;;;;;;;2.27;100.00;99615.63;5035647;28;20205;-73
2024/01/28 09:32:58;;;;;;;9.67;7.17;;;;;;;2.49;100.00;99620.72;5035683;28;20226;-73
2024/01/28 09:35:25;;;;;;;9.97;7.70;;;;;;;2.61;100.00;99612.63;5035804;28;20209;-73
2024/01/28 09:37:54;;;;;;;8.83;6.97;;;;;;;2.66;100.00;99617.50;5035892;28;20214;-73
2024/01/28 09:40:22;;;;;;;10.03;6.83;;;;;;;2.65;100.00;99621.06;5035380;28;20209;-73
2024/01/28 09:43:27;;;;;;;9.17;7.50;;;;;;;2.81;100.00;99621.44;5035550;28;20228;-73
2024/01/28 09:45:54;;;;;;;9.37;7.20;;;;;;;2.85;100.00;99623.66;5017971;28;20214;-73
2024/01/28 09:48:21;;;;;;;8.57;7.37;;;;;;;2.93;100.00;99620.38;5035778;28;20212;-73
2024/01/28 09:50:50;;;;;;;9.03;7.23;;;;;;;2.89;100.00;99614.53;5035326;28;20308;-73
2024/01/28 09:53:17;;;;;;;8.07;7.27;;;;;;;3.04;100.00;99625.53;5035316;28;20225;-73
2024/01/28 09:55:45;;;;;;;8.47;7.10;;;;;;;3.09;100.00;99615.44;5035693;28;20309;-73
2024/01/28 09:58:15;;;;;;;9.73;7.30;;;;;;;3.06;100.00;99620.94;5035288;28;20209;-73
2024/01/28 10:00:41;;;;;;;10.07;7.37;;;;;;;3.17;100.00;99612.97;5035167;28;20206;-73
2024/01/28 10:03:08;;;;;;;7.47;6.67;;;;;;;3.40;100.00;99620.50;5034951;28;20222;-73
2024/01/28 10:05:35;;;;;;;9.67;7.00;;;;;;;3.51;100.00;99619.53;5033813;28;20216;-73
2024/01/28 10:08:05;;;;;;;7.73;6.77;;;;;;;3.71;100.00;99616.78;5035265;28;20228;-73
2024/01/28 10:10:36;;;;;;;9.70;7.43;;;;;;;3.55;100.00;99621.75;5035394;28;20214;-73
2024/01/28 10:13:05;;;;;;;8.80;7.70;;;;;;;3.93;100.00;99607.78;5035261;28;20230;-73
2024/01/28 10:15:32;;;;;;;9.23;7.07;;;;;;;3.79;100.00;99600.31;5035325;28;20217;-73
2024/01/28 10:17:59;;;;;;;10.93;6.33;;;;;;;4.03;100.00;99603.34;5034998;28;20202;-73
2024/01/28 10:20:28;;;;;;;9.37;6.63;;;;;;;4.10;100.00;99604.44;5034998;28;20205;-73
2024/01/28 10:22:54;;;;;;;7.13;6.20;;;;;;;4.31;100.00;99605.09;5034969;28;20237;-73
2024/01/28 10:25:22;;;;;;;8.90;7.00;;;;;;;4.53;100.00;99597.69;5034658;28;20224;-73
2024/01/28 10:27:49;;;;;;;7.93;6.60;;;;;;;4.53;100.00;99602.13;5035026;28;20234;-73
2024/01/28 10:30:18;;;;;;;8.47;6.30;;;;;;;4.55;100.00;99592.28;5034547;28;20206;-73
2024/01/28 10:32:45;;;;;;;8.20;7.13;;;;;;;4.60;100.00;99596.13;5034728;28;20727;-73
2024/01/28 10:35:16;;;;;;;8.27;6.60;;;;;;;4.87;100.00;99595.31;5034759;28;20208;-73
2024/01/28 10:37:42;;;;;;;7.97;6.27;;;;;;;4.86;100.00;99593.69;5034597;28;20232;-72
2024/01/28 10:40:10;;;;;;;7.70;6.30;;;;;;;4.76;100.00;99588.47;5034670;28;20201;-71
2024/01/28 10:42:38;;;;;;;8.83;6.57;;;;;;;4.81;100.00;99585.38;5034134;28;20228;-73
2024/01/28 10:45:13;;;;;;;8.00;6.77;;;;;;;4.97;100.00;99590.88;5034299;28;20620;-71
2024/01/28 10:47:49;;;;;;;8.07;6.30;;;;;;;5.07;100.00;99575.81;5033998;28;20215;-73
2024/01/28 10:50:17;;;;;;;8.13;6.57;;;;;;;5.08;100.00;99582.75;5033994;28;20196;-71
2024/01/28 10:52:45;;;;;;;9.37;7.10;;;;;;;5.06;100.00;99580.25;5034258;28;20316;-71
2024/01/28 10:55:12;;;;;;;7.03;6.33;;;;;;;5.29;100.00;99580.69;5034301;28;20213;-71
2024/01/28 10:57:40;;;;;;;8.90;6.33;;;;;;;5.26;100.00;99578.34;5034228;28;20233;-71
2024/01/28 11:00:10;;;;;;;7.53;6.07;;;;;;;5.30;100.00;99571.78;5034352;28;20285;-71
2024/01/28 11:02:39;;;;;;;7.47;5.87;;;;;;;5.33;100.00;99574.94;5033605;28;20257;-72
2024/01/28 11:05:07;;;;;;;7.43;5.97;;;;;;;5.50;100.00;99582.06;5034191;28;20232;-72
2024/01/28 11:07:33;;;;;;;8.73;5.70;;;;;;;5.61;100.00;99578.38;5033834;28;20614;-72
2024/01/28 11:10:00;;;;;;;7.27;6.00;;;;;;;5.90;100.00;99577.19;5033871;28;20304;-72
2024/01/28 11:12:28;;;;;;;7.73;6.00;;;;;;;6.00;100.00;99579.72;5033637;28;20594;-72
2024/01/28 11:14:58;;;;;;;6.77;6.07;;;;;;;5.93;100.00;99563.66;5033904;28;20206;-72
2024/01/28 11:17:34;;;;;;;7.47;5.97;;;;;;;5.86;100.00;99560.00;5034808;28;20216;-72
2024/01/28 11:20:16;;;;;;;8.10;5.67;;;;;;;6.01;100.00;99558.44;5033862;28;20194;-72
2024/01/28 11:22:53;;;;;;;7.17;5.80;;;;;;;6.01;100.00;99552.38;5034135;28;20280;-72
2024/01/28 11:25:21;;;;;;;7.67;5.90;;;;;;;6.03;100.00;99553.88;5033545;28;20228;-72
2024/01/28 11:27:52;;;;;;;7.27;5.90;;;;;;;6.04;100.00;99552.03;5033795;28;20212;-72